PS23 weather

Windy Hill Airport
Curwensville, Pennsylvania, United States

Public forecast

Using degrees Fahrenheit for public forecast. Weather courtesy of forecast.io.

Closest aviation weather report (METAR) to Windy Hill Airport

Closest report is Bedford County Airport, 1.6 nm (3.0 km) E. Retrieved 2020/05/26 19:35 UTC (0 seconds ago):

KHMZ 261935Z AUTO 17006KT 110V190 10SM CLR 27/15 A3016 RMK AO2 T02710149

Closest aviation forecast (TAF) to Windy Hill Airport

Closest forecast is Altoona Blair County Airport, 16.4 nm (30.4 km) NE. Retrieved 2020/05/26 18:22 UTC (1 hour ago):

TAF KAOO 261720Z 2618/2718 15005KT P6SM SKC FM270600 00000KT 6SM BR OVC120 FM271000 14002KT 6SM BR OVC019 FM271200 16004KT P6SM OVC015